sensor_id;sensor_type;location;lat;lon;timestamp;temperature;humidity
43414;DHT22;29013;49.676;8.606;2023-03-16T00:01:06;2.8;99.9
43414;DHT22;29013;49.676;8.606;2023-03-16T00:06:25;2.7;99.9
43414;DHT22;29013;49.676;8.606;2023-03-16T00:11:44;2.5;99.9
43414;DHT22;29013;49.676;8.606;2023-03-16T00:17:02;2.3;99.9
43414;DHT22;29013;49.676;8.606;2023-03-16T00:22:25;2.2;99.9
43414;DHT22;29013;49.676;8.606;2023-03-16T00:27:48;2.1;99.9
43414;DHT22;29013;49.676;8.606;2023-03-16T00:33:13;2.0;99.9
43414;DHT22;29013;49.676;8.606;2023-03-16T00:38:39;2.1;99.9
43414;DHT22;29013;49.676;8.606;2023-03-16T00:43:57;2.3;99.9
43414;DHT22;29013;49.676;8.606;2023-03-16T00:49:22;2.4;99.9
43414;DHT22;29013;49.676;8.606;2023-03-16T00:54:48;2.5;99.9
43414;DHT22;29013;49.676;8.606;2023-03-16T01:00:12;2.6;99.9
43414;DHT22;29013;49.676;8.606;2023-03-16T01:05:30;2.6;99.9
43414;DHT22;29013;49.676;8.606;2023-03-16T01:10:49;2.7;99.9
43414;DHT22;29013;49.676;8.606;2023-03-16T01:16:13;2.7;99.9
43414;DHT22;29013;49.676;8.606;2023-03-16T01:21:39;2.6;99.9
43414;DHT22;29013;49.676;8.606;2023-03-16T01:27:03;2.5;99.9
43414;DHT22;29013;49.676;8.606;2023-03-16T01:32:28;2.2;99.9
43414;DHT22;29013;49.676;8.606;2023-03-16T01:37:46;2.0;99.9
43414;DHT22;29013;49.676;8.606;2023-03-16T01:43:13;1.9;99.9
43414;DHT22;29013;49.676;8.606;2023-03-16T01:48:32;1.7;99.9
43414;DHT22;29013;49.676;8.606;2023-03-16T01:53:57;1.7;99.9
43414;DHT22;29013;49.676;8.606;2023-03-16T01:59:15;1.6;99.9
43414;DHT22;29013;49.676;8.606;2023-03-16T02:04:55;1.6;99.9
43414;DHT22;29013;49.676;8.606;2023-03-16T02:10:18;1.9;99.9
43414;DHT22;29013;49.676;8.606;2023-03-16T02:15:43;2.0;99.9
43414;DHT22;29013;49.676;8.606;2023-03-16T02:21:09;2.1;99.9
43414;DHT22;29013;49.676;8.606;2023-03-16T02:26:34;2.1;99.9
43414;DHT22;29013;49.676;8.606;2023-03-16T02:31:58;2.2;99.9
43414;DHT22;29013;49.676;8.606;2023-03-16T02:37:17;2.2;99.9
43414;DHT22;29013;49.676;8.606;2023-03-16T02:42:44;2.2;99.9
43414;DHT22;29013;49.676;8.606;2023-03-16T02:48:22;2.2;99.9
43414;DHT22;29013;49.676;8.606;2023-03-16T02:53:46;2.2;99.9
43414;DHT22;29013;49.676;8.606;2023-03-16T02:59:10;2.0;99.9
43414;DHT22;29013;49.676;8.606;2023-03-16T03:04:34;1.8;99.9
43414;DHT22;29013;49.676;8.606;2023-03-16T03:09:52;1.6;99.9
43414;DHT22;29013;49.676;8.606;2023-03-16T03:15:12;1.6;99.9
43414;DHT22;29013;49.676;8.606;2023-03-16T03:20:30;1.8;99.9
43414;DHT22;29013;49.676;8.606;2023-03-16T03:25:57;1.9;99.9
43414;DHT22;29013;49.676;8.606;2023-03-16T03:31:34;1.9;99.9
43414;DHT22;29013;49.676;8.606;2023-03-16T03:36:57;2.0;99.9
43414;DHT22;29013;49.676;8.606;2023-03-16T03:42:15;2.0;99.9
43414;DHT22;29013;49.676;8.606;2023-03-16T03:48:04;1.8;99.9
43414;DHT22;29013;49.676;8.606;2023-03-16T03:53:21;1.9;99.9
43414;DHT22;29013;49.676;8.606;2023-03-16T03:58:40;1.7;99.9
43414;DHT22;29013;49.676;8.606;2023-03-16T04:04:04;1.5;99.9
43414;DHT22;29013;49.676;8.606;2023-03-16T04:09:29;1.5;99.9
43414;DHT22;29013;49.676;8.606;2023-03-16T04:14:47;1.5;99.9
43414;DHT22;29013;49.676;8.606;2023-03-16T04:20:14;1.4;99.9
43414;DHT22;29013;49.676;8.606;2023-03-16T04:25:32;1.6;99.9
43414;DHT22;29013;49.676;8.606;2023-03-16T04:31:05;1.6;99.9
43414;DHT22;29013;49.676;8.606;2023-03-16T04:36:27;1.6;99.9
43414;DHT22;29013;49.676;8.606;2023-03-16T04:41:54;1.5;99.9
43414;DHT22;29013;49.676;8.606;2023-03-16T04:47:17;1.4;99.9
43414;DHT22;29013;49.676;8.606;2023-03-16T04:52:42;1.2;99.9
43414;DHT22;29013;49.676;8.606;2023-03-16T04:58:06;1.2;99.9
43414;DHT22;29013;49.676;8.606;2023-03-16T05:03:32;1.1;99.9
43414;DHT22;29013;49.676;8.606;2023-03-16T05:08:57;1.1;99.9
43414;DHT22;29013;49.676;8.606;2023-03-16T05:14:43;1.0;99.9
43414;DHT22;29013;49.676;8.606;2023-03-16T05:20:11;1.5;99.9
43414;DHT22;29013;49.676;8.606;2023-03-16T05:25:28;1.6;99.9
43414;DHT22;29013;49.676;8.606;2023-03-16T05:31:13;1.7;99.9
43414;DHT22;29013;49.676;8.606;2023-03-16T05:36:37;2.0;99.9
43414;DHT22;29013;49.676;8.606;2023-03-16T05:42:00;2.0;99.9
43414;DHT22;29013;49.676;8.606;2023-03-16T05:47:23;2.1;99.9
43414;DHT22;29013;49.676;8.606;2023-03-16T05:52:47;2.1;99.9
43414;DHT22;29013;49.676;8.606;2023-03-16T05:58:11;1.9;99.9
43414;DHT22;29013;49.676;8.606;2023-03-16T06:03:37;1.9;99.9
43414;DHT22;29013;49.676;8.606;2023-03-16T06:09:02;1.8;99.9
43414;DHT22;29013;49.676;8.606;2023-03-16T06:14:25;1.8;99.9
43414;DHT22;29013;49.676;8.606;2023-03-16T06:19:51;2.0;99.9
43414;DHT22;29013;49.676;8.606;2023-03-16T06:25:16;2.2;99.9
43414;DHT22;29013;49.676;8.606;2023-03-16T06:30:41;2.5;99.9
43414;DHT22;29013;49.676;8.606;2023-03-16T06:36:07;2.6;99.9
43414;DHT22;29013;49.676;8.606;2023-03-16T06:42:11;2.8;99.9
43414;DHT22;29013;49.676;8.606;2023-03-16T06:47:33;3.2;99.9
43414;DHT22;29013;49.676;8.606;2023-03-16T06:52:58;3.3;99.9
43414;DHT22;29013;49.676;8.606;2023-03-16T06:58:23;3.5;99.9
43414;DHT22;29013;49.676;8.606;2023-03-16T07:04:10;3.4;99.9
43414;DHT22;29013;49.676;8.606;2023-03-16T07:09:34;3.5;99.9
43414;DHT22;29013;49.676;8.606;2023-03-16T07:15:00;3.6;99.9
43414;DHT22;29013;49.676;8.606;2023-03-16T07:20:32;3.7;99.9
43414;DHT22;29013;49.676;8.606;2023-03-16T07:25:55;3.9;99.9
43414;DHT22;29013;49.676;8.606;2023-03-16T07:31:21;4.1;99.9
43414;DHT22;29013;49.676;8.606;2023-03-16T07:36:45;4.4;99.9
43414;DHT22;29013;49.676;8.606;2023-03-16T07:42:10;4.7;99.9
43414;DHT22;29013;49.676;8.606;2023-03-16T07:47:35;4.9;99.9
43414;DHT22;29013;49.676;8.606;2023-03-16T07:53:00;5.0;99.9
43414;DHT22;29013;49.676;8.606;2023-03-16T07:58:25;5.1;99.9
43414;DHT22;29013;49.676;8.606;2023-03-16T08:03:50;5.3;99.9
43414;DHT22;29013;49.676;8.606;2023-03-16T08:09:31;5.2;99.9
43414;DHT22;29013;49.676;8.606;2023-03-16T08:14:55;5.4;99.9
43414;DHT22;29013;49.676;8.606;2023-03-16T08:20:21;5.6;99.9
43414;DHT22;29013;49.676;8.606;2023-03-16T08:25:40;5.7;99.9
43414;DHT22;29013;49.676;8.606;2023-03-16T08:31:06;5.7;99.9
43414;DHT22;29013;49.676;8.606;2023-03-16T08:36:30;5.9;99.9
43414;DHT22;29013;49.676;8.606;2023-03-16T08:41:55;6.1;99.9
43414;DHT22;29013;49.676;8.606;2023-03-16T08:47:20;6.4;99.9
43414;DHT22;29013;49.676;8.606;2023-03-16T08:52:45;6.7;99.9
43414;DHT22;29013;49.676;8.606;2023-03-16T08:58:11;6.9;99.9
43414;DHT22;29013;49.676;8.606;2023-03-16T09:03:30;7.1;99.9
43414;DHT22;29013;49.676;8.606;2023-03-16T09:08:54;7.2;99.9
43414;DHT22;29013;49.676;8.606;2023-03-16T09:14:18;7.4;99.9
43414;DHT22;29013;49.676;8.606;2023-03-16T09:19:43;7.6;99.9
43414;DHT22;29013;49.676;8.606;2023-03-16T09:25:10;7.7;99.9
43414;DHT22;29013;49.676;8.606;2023-03-16T09:30:34;7.8;99.9
43414;DHT22;29013;49.676;8.606;2023-03-16T09:35:59;8.2;99.9
43414;DHT22;29013;49.676;8.606;2023-03-16T09:41:24;8.4;99.9
43414;DHT22;29013;49.676;8.606;2023-03-16T09:46:46;8.6;99.9
43414;DHT22;29013;49.676;8.606;2023-03-16T09:52:15;8.9;99.9
43414;DHT22;29013;49.676;8.606;2023-03-16T09:57:33;9.1;99.9
43414;DHT22;29013;49.676;8.606;2023-03-16T10:03:16;9.1;99.4
43414;DHT22;29013;49.676;8.606;2023-03-16T10:08:39;8.9;99.1
43414;DHT22;29013;49.676;8.606;2023-03-16T10:14:07;8.8;99.8
43414;DHT22;29013;49.676;8.606;2023-03-16T10:19:28;8.7;99.8
43414;DHT22;29013;49.676;8.606;2023-03-16T10:25:01;8.6;99.9
43414;DHT22;29013;49.676;8.606;2023-03-16T10:30:51;8.9;99.9
43414;DHT22;29013;49.676;8.606;2023-03-16T10:36:17;9.3;99.9
43414;DHT22;29013;49.676;8.606;2023-03-16T10:41:41;9.5;99.3
43414;DHT22;29013;49.676;8.606;2023-03-16T10:47:31;9.6;99.3
43414;DHT22;29013;49.676;8.606;2023-03-16T10:52:53;9.9;98.1
43414;DHT22;29013;49.676;8.606;2023-03-16T10:58:21;10.1;98.3
43414;DHT22;29013;49.676;8.606;2023-03-16T11:03:31;10.3;98.4
43414;DHT22;29013;49.676;8.606;2023-03-16T11:09:18;10.3;98.4
43414;DHT22;29013;49.676;8.606;2023-03-16T11:15:01;10.6;97.1
43414;DHT22;29013;49.676;8.606;2023-03-16T11:20:25;10.6;96.6
43414;DHT22;29013;49.676;8.606;2023-03-16T11:25:50;10.5;96.5
43414;DHT22;29013;49.676;8.606;2023-03-16T11:31:18;10.8;97.6
43414;DHT22;29013;49.676;8.606;2023-03-16T11:36:45;11.0;97.2
43414;DHT22;29013;49.676;8.606;2023-03-16T11:42:32;11.2;96.7
43414;DHT22;29013;49.676;8.606;2023-03-16T11:48:03;11.6;97.0
43414;DHT22;29013;49.676;8.606;2023-03-16T11:53:26;11.9;96.3
43414;DHT22;29013;49.676;8.606;2023-03-16T11:58:54;12.2;96.5
43414;DHT22;29013;49.676;8.606;2023-03-16T12:04:38;12.2;95.9
43414;DHT22;29013;49.676;8.606;2023-03-16T12:10:11;12.6;95.2
43414;DHT22;29013;49.676;8.606;2023-03-16T12:15:36;12.8;95.1
43414;DHT22;29013;49.676;8.606;2023-03-16T12:20:56;13.0;94.7
43414;DHT22;29013;49.676;8.606;2023-03-16T12:26:22;13.0;94.4
43414;DHT22;29013;49.676;8.606;2023-03-16T12:31:48;12.9;94.3
43414;DHT22;29013;49.676;8.606;2023-03-16T12:37:15;12.9;93.0
43414;DHT22;29013;49.676;8.606;2023-03-16T12:42:49;12.7;93.6
43414;DHT22;29013;49.676;8.606;2023-03-16T12:48:15;13.0;93.8
43414;DHT22;29013;49.676;8.606;2023-03-16T12:53:45;13.0;94.1
43414;DHT22;29013;49.676;8.606;2023-03-16T12:59:14;13.1;93.2
43414;DHT22;29013;49.676;8.606;2023-03-16T13:04:30;13.1;93.6
43414;DHT22;29013;49.676;8.606;2023-03-16T13:09:51;13.1;93.6
43414;DHT22;29013;49.676;8.606;2023-03-16T13:15:28;13.0;93.4
43414;DHT22;29013;49.676;8.606;2023-03-16T13:20:59;13.1;93.9
43414;DHT22;29013;49.676;8.606;2023-03-16T13:26:37;13.1;93.3
43414;DHT22;29013;49.676;8.606;2023-03-16T13:31:59;13.1;92.6
43414;DHT22;29013;49.676;8.606;2023-03-16T13:37:18;13.1;92.1
43414;DHT22;29013;49.676;8.606;2023-03-16T13:42:42;13.1;91.6
43414;DHT22;29013;49.676;8.606;2023-03-16T13:48:06;13.2;91.3
43414;DHT22;29013;49.676;8.606;2023-03-16T13:53:26;13.2;91.3
43414;DHT22;29013;49.676;8.606;2023-03-16T13:58:50;13.0;92.0
43414;DHT22;29013;49.676;8.606;2023-03-16T14:04:15;13.2;91.9
43414;DHT22;29013;49.676;8.606;2023-03-16T14:09:38;13.4;92.1
43414;DHT22;29013;49.676;8.606;2023-03-16T14:15:04;13.4;91.2
43414;DHT22;29013;49.676;8.606;2023-03-16T14:20:29;13.4;90.8
43414;DHT22;29013;49.676;8.606;2023-03-16T14:25:54;13.5;91.2
43414;DHT22;29013;49.676;8.606;2023-03-16T14:31:18;13.6;91.4
43414;DHT22;29013;49.676;8.606;2023-03-16T14:37:10;13.7;91.4
43414;DHT22;29013;49.676;8.606;2023-03-16T14:42:29;13.9;90.8
43414;DHT22;29013;49.676;8.606;2023-03-16T14:47:48;14.0;91.0
43414;DHT22;29013;49.676;8.606;2023-03-16T14:53:12;14.1;90.5
43414;DHT22;29013;49.676;8.606;2023-03-16T14:58:37;14.0;90.2
43414;DHT22;29013;49.676;8.606;2023-03-16T15:04:02;14.0;90.4
43414;DHT22;29013;49.676;8.606;2023-03-16T15:09:34;14.0;90.7
43414;DHT22;29013;49.676;8.606;2023-03-16T15:14:59;13.8;90.0
43414;DHT22;29013;49.676;8.606;2023-03-16T15:20:26;13.5;90.0
43414;DHT22;29013;49.676;8.606;2023-03-16T15:25:50;13.3;90.9
43414;DHT22;29013;49.676;8.606;2023-03-16T15:31:11;13.4;90.7
43414;DHT22;29013;49.676;8.606;2023-03-16T15:36:34;13.4;90.7
43414;DHT22;29013;49.676;8.606;2023-03-16T15:41:53;13.5;90.6
43414;DHT22;29013;49.676;8.606;2023-03-16T15:47:18;13.5;90.5
43414;DHT22;29013;49.676;8.606;2023-03-16T15:52:59;13.4;90.2
43414;DHT22;29013;49.676;8.606;2023-03-16T15:58:24;13.6;90.0
43414;DHT22;29013;49.676;8.606;2023-03-16T16:03:46;13.2;89.2
43414;DHT22;29013;49.676;8.606;2023-03-16T16:09:29;12.7;90.4
43414;DHT22;29013;49.676;8.606;2023-03-16T16:14:53;12.4;90.6
43414;DHT22;29013;49.676;8.606;2023-03-16T16:20:19;12.0;91.4
43414;DHT22;29013;49.676;8.606;2023-03-16T16:25:37;11.9;92.0
43414;DHT22;29013;49.676;8.606;2023-03-16T16:31:00;12.0;92.2
43414;DHT22;29013;49.676;8.606;2023-03-16T16:36:30;12.0;92.7
43414;DHT22;29013;49.676;8.606;2023-03-16T16:41:55;12.0;92.8
43414;DHT22;29013;49.676;8.606;2023-03-16T16:48:05;11.9;93.2
43414;DHT22;29013;49.676;8.606;2023-03-16T16:53:22;12.1;93.0
43414;DHT22;29013;49.676;8.606;2023-03-16T16:58:46;11.9;92.9
43414;DHT22;29013;49.676;8.606;2023-03-16T17:04:15;11.7;93.3
43414;DHT22;29013;49.676;8.606;2023-03-16T17:09:32;11.5;93.4
43414;DHT22;29013;49.676;8.606;2023-03-16T17:14:57;11.1;93.6
43414;DHT22;29013;49.676;8.606;2023-03-16T17:20:22;10.9;94.2
43414;DHT22;29013;49.676;8.606;2023-03-16T17:25:47;10.9;94.7
43414;DHT22;29013;49.676;8.606;2023-03-16T17:31:14;10.7;94.8
43414;DHT22;29013;49.676;8.606;2023-03-16T17:36:38;10.6;94.7
43414;DHT22;29013;49.676;8.606;2023-03-16T17:42:05;10.6;95.1
43414;DHT22;29013;49.676;8.606;2023-03-16T17:47:30;10.4;95.2
43414;DHT22;29013;49.676;8.606;2023-03-16T17:52:55;10.3;95.4
43414;DHT22;29013;49.676;8.606;2023-03-16T17:58:27;10.2;95.5
43414;DHT22;29013;49.676;8.606;2023-03-16T18:03:51;10.1;95.4
43414;DHT22;29013;49.676;8.606;2023-03-16T18:09:14;9.8;95.6
43414;DHT22;29013;49.676;8.606;2023-03-16T18:14:39;9.6;96.0
43414;DHT22;29013;49.676;8.606;2023-03-16T18:20:08;9.6;96.1
43414;DHT22;29013;49.676;8.606;2023-03-16T18:25:38;9.8;96.0
43414;DHT22;29013;49.676;8.606;2023-03-16T18:31:01;9.9;95.9
43414;DHT22;29013;49.676;8.606;2023-03-16T18:36:28;10.0;95.8
43414;DHT22;29013;49.676;8.606;2023-03-16T18:41:46;10.0;95.7
43414;DHT22;29013;49.676;8.606;2023-03-16T18:47:13;10.0;95.6
43414;DHT22;29013;49.676;8.606;2023-03-16T18:52:36;10.0;95.6
43414;DHT22;29013;49.676;8.606;2023-03-16T18:57:55;10.0;95.6
43414;DHT22;29013;49.676;8.606;2023-03-16T19:03:25;9.8;95.6
43414;DHT22;29013;49.676;8.606;2023-03-16T19:08:45;9.6;95.5
43414;DHT22;29013;49.676;8.606;2023-03-16T19:14:15;9.6;95.7
43414;DHT22;29013;49.676;8.606;2023-03-16T19:19:35;9.7;95.7
43414;DHT22;29013;49.676;8.606;2023-03-16T19:24:54;9.9;95.8
43414;DHT22;29013;49.676;8.606;2023-03-16T19:30:21;10.0;95.6
43414;DHT22;29013;49.676;8.606;2023-03-16T19:35:46;10.0;95.6
43414;DHT22;29013;49.676;8.606;2023-03-16T19:41:19;10.0;95.7
43414;DHT22;29013;49.676;8.606;2023-03-16T19:46:41;10.0;95.3
43414;DHT22;29013;49.676;8.606;2023-03-16T19:52:10;9.9;95.4
43414;DHT22;29013;49.676;8.606;2023-03-16T19:57:34;9.9;95.3
43414;DHT22;29013;49.676;8.606;2023-03-16T20:03:00;9.8;95.1
43414;DHT22;29013;49.676;8.606;2023-03-16T20:08:24;9.4;95.3
43414;DHT22;29013;49.676;8.606;2023-03-16T20:13:59;9.1;96.0
43414;DHT22;29013;49.676;8.606;2023-03-16T20:19:23;9.0;95.8
43414;DHT22;29013;49.676;8.606;2023-03-16T20:24:47;8.6;96.0
43414;DHT22;29013;49.676;8.606;2023-03-16T20:30:17;8.6;96.5
43414;DHT22;29013;49.676;8.606;2023-03-16T20:35:42;8.7;96.6
43414;DHT22;29013;49.676;8.606;2023-03-16T20:41:01;8.8;96.7
43414;DHT22;29013;49.676;8.606;2023-03-16T20:46:26;8.9;96.6
43414;DHT22;29013;49.676;8.606;2023-03-16T20:52:19;9.0;96.9
43414;DHT22;29013;49.676;8.606;2023-03-16T20:57:43;9.1;96.3
43414;DHT22;29013;49.676;8.606;2023-03-16T21:03:10;9.1;96.3
43414;DHT22;29013;49.676;8.606;2023-03-16T21:08:31;9.1;96.4
43414;DHT22;29013;49.676;8.606;2023-03-16T21:13:57;9.0;96.5
43414;DHT22;29013;49.676;8.606;2023-03-16T21:19:20;8.9;96.3
43414;DHT22;29013;49.676;8.606;2023-03-16T21:25:29;8.5;96.8
43414;DHT22;29013;49.676;8.606;2023-03-16T21:30:45;8.6;96.5
43414;DHT22;29013;49.676;8.606;2023-03-16T21:36:13;8.6;96.9
43414;DHT22;29013;49.676;8.606;2023-03-16T21:41:34;8.6;97.0
43414;DHT22;29013;49.676;8.606;2023-03-16T21:46:53;8.7;97.0
43414;DHT22;29013;49.676;8.606;2023-03-16T21:52:21;8.7;97.0
43414;DHT22;29013;49.676;8.606;2023-03-16T21:57:42;8.7;97.0
43414;DHT22;29013;49.676;8.606;2023-03-16T22:03:57;8.6;97.5
43414;DHT22;29013;49.676;8.606;2023-03-16T22:09:20;8.8;97.1
43414;DHT22;29013;49.676;8.606;2023-03-16T22:14:41;8.7;97.4
43414;DHT22;29013;49.676;8.606;2023-03-16T22:20:10;8.5;97.3
43414;DHT22;29013;49.676;8.606;2023-03-16T22:25:26;8.2;97.4
43414;DHT22;29013;49.676;8.606;2023-03-16T22:31:08;7.8;98.2
43414;DHT22;29013;49.676;8.606;2023-03-16T22:36:31;7.8;98.2
43414;DHT22;29013;49.676;8.606;2023-03-16T22:41:55;7.8;98.5
43414;DHT22;29013;49.676;8.606;2023-03-16T22:47:23;7.9;98.6
43414;DHT22;29013;49.676;8.606;2023-03-16T22:52:46;8.1;98.5
43414;DHT22;29013;49.676;8.606;2023-03-16T22:58:11;8.2;98.6
43414;DHT22;29013;49.676;8.606;2023-03-16T23:03:29;8.3;98.6
43414;DHT22;29013;49.676;8.606;2023-03-16T23:08:52;8.3;98.6
43414;DHT22;29013;49.676;8.606;2023-03-16T23:14:17;8.4;98.4
43414;DHT22;29013;49.676;8.606;2023-03-16T23:19:39;8.4;97.8
43414;DHT22;29013;49.676;8.606;2023-03-16T23:25:06;8.2;97.6
43414;DHT22;29013;49.676;8.606;2023-03-16T23:30:47;8.0;97.9
43414;DHT22;29013;49.676;8.606;2023-03-16T23:36:16;8.2;97.7
43414;DHT22;29013;49.676;8.606;2023-03-16T23:41:39;8.3;97.8
43414;DHT22;29013;49.676;8.606;2023-03-16T23:47:03;8.4;97.8
43414;DHT22;29013;49.676;8.606;2023-03-16T23:52:27;8.4;97.4
43414;DHT22;29013;49.676;8.606;2023-03-16T23:57:45;8.1;97.7
